Sangen Maru — JL5229 — position and weather

sailwx.info

Track history (hours):
 
Tides and Currents Weather Stations Pressure Air Temp Water Temp Dewpoint Dewpoint Depression Visibility Wind Speed Wind Dir Waves Ship Positions

Sangen Maru

Last reported at 2018-Jun-18 22:09 UTC. Time now 2018-Jun-18 22:35 UTC.
Position N 34°07' E 135°08'.

Length 72 m; draft 3.6 m.

Type: Tanker. MMSI: 431501792.

Date/timePositionNaut miles runAvg speedWind from/ knotsBaromVisibWave heightAir tempDewpointWater temp
2018-Jun-18 22:09N 34°07' E 135°08'0 1.9
2018-Jun-18 22:00N 34°07' E 135°08'0 0.2
2018-Jun-18 21:03N 34°07' E 135°08'0 0.0
2018-Jun-18 20:45N 34°07' E 135°08'0 0.0
2018-Jun-18 20:27N 34°07' E 135°08'0 0.0
2018-Jun-18 20:00N 34°07' E 135°08'0 0.0
2018-Jun-18 19:30N 34°07' E 135°08'0 0.0
2018-Jun-18 18:51N 34°07' E 135°08'0 0.0
2018-Jun-18 18:21N 34°07' E 135°08'0 0.0
2018-Jun-18 17:57N 34°07' E 135°08'0 0.0
2018-Jun-18 17:30N 34°07' E 135°08'0 0.0
2018-Jun-18 17:00N 34°07' E 135°08'2 3.9
2018-Jun-18 16:30N 34°09' E 135°06'612.6
2018-Jun-18 16:01N 34°14' E 135°01'510.6
2018-Jun-18 15:31N 34°18' E 134°59'510.5
2018-Jun-18 15:00N 34°23' E 134°60'611.6
2018-Jun-18 14:31N 34°29' E 135°01'510.8
2018-Jun-18 14:01N 34°34' E 135°02'3 6.3
2018-Jun-18 13:29N 34°37' E 134°60'610.7
2018-Jun-18 12:58N 34°35' E 134°53'711.6
2018-Jun-18 12:24N 34°32' E 134°46'512.5
2018-Jun-18 12:01N 34°30' E 134°41'713.1
2018-Jun-18 11:31N 34°28' E 134°33'713.2
2018-Jun-18 11:01N 34°25' E 134°26'4 0.2
2018-Jun-17 12:48N 34°25' E 134°21'412.4
2018-Jun-17 12:27N 34°27' E 134°26'612.4
2018-Jun-17 12:00N 34°29' E 134°32'712.4
2018-Jun-17 11:29N 34°32' E 134°40'612.5
2018-Jun-17 10:59N 34°34' E 134°47'812.7
2018-Jun-17 10:21N 34°37' E 134°56'411.2
2018-Jun-17 09:58N 34°37' E 135°01'510.6
2018-Jun-17 09:30N 34°36' E 135°07'611.7
2018-Jun-17 09:00N 34°36' E 135°14'611.4
2018-Jun-17 08:30N 34°34' E 135°21'4 1.0
2018-Jun-17 04:06N 34°31' E 135°25'0 3.2
2018-Jun-17 03:59N 34°32' E 135°24'3 6.0
2018-Jun-17 03:29N 34°32' E 135°21'0 0.0
2018-Jun-17 00:08N 34°32' E 135°21'1 8.8
2018-Jun-16 23:59N 34°32' E 135°22'2 0.1
2018-Jun-15 23:54N 34°31' E 135°24'3 6.9
2018-Jun-15 23:29N 34°33' E 135°22'2 2.6
2018-Jun-15 22:34N 34°32' E 135°19'0 0.0
2018-Jun-15 22:16N 34°32' E 135°19'0 0.0
2018-Jun-15 21:46N 34°32' E 135°19'0 0.0
2018-Jun-15 21:28N 34°32' E 135°19'0 0.0
2018-Jun-15 20:52N 34°32' E 135°19'0 0.0
2018-Jun-15 20:22N 34°32' E 135°19'0 0.0
2018-Jun-15 19:50N 34°32' E 135°19'3 9.2
2018-Jun-15 19:30N 34°33' E 135°16'713.1
2018-Jun-15 19:00N 34°35' E 135°08'815.1
2018-Jun-15 18:29N 34°37' E 134°59'714.7
2018-Jun-15 18:00N 34°34' E 134°51'713.1
2018-Jun-15 17:31N 34°31' E 134°44'612.6
2018-Jun-15 17:00N 34°29' E 134°36'612.7
2018-Jun-15 16:30N 34°27' E 134°29'812.6
2018-Jun-15 15:50N 34°24' E 134°20'3 0.1
2018-Jun-14 15:05N 34°25' E 134°22'212.0
2018-Jun-14 14:54N 34°26' E 134°25'512.1
2018-Jun-14 14:30N 34°28' E 134°30'612.3
2018-Jun-14 14:00N 34°30' E 134°37'612.9
2018-Jun-14 13:30N 34°33' E 134°44'1114.6
2018-Jun-14 12:43N 34°37' E 134°57'314.6
2018-Jun-14 12:29N 34°37' E 135°01'612.3
2018-Jun-14 12:00N 34°36' E 135°08'612.1
2018-Jun-14 11:30N 34°36' E 135°16'611.5
2018-Jun-14 11:00N 34°34' E 135°22'3 0.5
2018-Jun-14 04:38N 34°33' E 135°26'0 1.3
2018-Jun-14 04:23N 34°33' E 135°25'2 6.2
2018-Jun-14 04:00N 34°33' E 135°23'3 1.1
2018-Jun-14 01:34N 34°32' E 135°20'1 6.3
2018-Jun-14 01:28N 34°32' E 135°19'612.5
2018-Jun-14 01:01N 34°28' E 135°13'612.6
2018-Jun-14 00:31N 34°24' E 135°08'612.6
2018-Jun-14 00:00N 34°20' E 135°02'611.4
2018-Jun-13 23:30N 34°15' E 134°59'612.8
2018-Jun-13 23:01N 34°08' E 135°00'612.8
2018-Jun-13 22:31N 34°02' E 135°02'612.7
2018-Jun-13 22:00N 33°56' E 135°02'611.7
2018-Jun-13 21:27N 33°49' E 135°04'  
2018-Jun-09 08:19N 33°54' E 135°01'411.2
2018-Jun-09 08:00N 33°57' E 135°00'611.3
2018-Jun-09 07:30N 34°03' E 134°60'611.4
2018-Jun-09 07:00N 34°09' E 134°59'612.1
2018-Jun-09 06:30N 34°15' E 134°59'511.0
2018-Jun-09 06:00N 34°20' E 134°59'611.3
2018-Jun-09 05:31N 34°24' E 135°04'612.1
2018-Jun-09 05:00N 34°27' E 135°10'612.0
2018-Jun-09 04:30N 34°30' E 135°17'611.8
2018-Jun-09 04:00N 34°33' E 135°23'  
Track history (hours):
 
Tides and Currents Weather Stations Pressure Air Temp Water Temp Dewpoint Dewpoint Depression Visibility Wind Speed Wind Dir Waves Ship Positions

Sangen Maru

Last reported at 2018-Jun-18 22:09 UTC. Time now 2018-Jun-18 22:35 UTC.
Position N 34°07' E 135°08'.

Length 72 m; draft 3.6 m.

Type: Tanker. MMSI: 431501792.

Date/timePositionNaut miles runAvg speedWind from/ knotsBaromVisibWave heightAir tempDewpointWater temp
2018-Jun-18 22:09N 34°07' E 135°08'0 1.9
2018-Jun-18 22:00N 34°07' E 135°08'0 0.2
2018-Jun-18 21:03N 34°07' E 135°08'0 0.0
2018-Jun-18 20:45N 34°07' E 135°08'0 0.0
2018-Jun-18 20:27N 34°07' E 135°08'0 0.0
2018-Jun-18 20:00N 34°07' E 135°08'0 0.0
2018-Jun-18 19:30N 34°07' E 135°08'0 0.0
2018-Jun-18 18:51N 34°07' E 135°08'0 0.0
2018-Jun-18 18:21N 34°07' E 135°08'0 0.0
2018-Jun-18 17:57N 34°07' E 135°08'0 0.0
2018-Jun-18 17:30N 34°07' E 135°08'0 0.0
2018-Jun-18 17:00N 34°07' E 135°08'2 3.9
2018-Jun-18 16:30N 34°09' E 135°06'612.6
2018-Jun-18 16:01N 34°14' E 135°01'510.6
2018-Jun-18 15:31N 34°18' E 134°59'510.5
2018-Jun-18 15:00N 34°23' E 134°60'611.6
2018-Jun-18 14:31N 34°29' E 135°01'510.8
2018-Jun-18 14:01N 34°34' E 135°02'3 6.3
2018-Jun-18 13:29N 34°37' E 134°60'610.7
2018-Jun-18 12:58N 34°35' E 134°53'711.6
2018-Jun-18 12:24N 34°32' E 134°46'512.5
2018-Jun-18 12:01N 34°30' E 134°41'713.1
2018-Jun-18 11:31N 34°28' E 134°33'713.2
2018-Jun-18 11:01N 34°25' E 134°26'4 0.2
2018-Jun-17 12:48N 34°25' E 134°21'412.4
2018-Jun-17 12:27N 34°27' E 134°26'612.4
2018-Jun-17 12:00N 34°29' E 134°32'712.4
2018-Jun-17 11:29N 34°32' E 134°40'612.5
2018-Jun-17 10:59N 34°34' E 134°47'812.7
2018-Jun-17 10:21N 34°37' E 134°56'411.2
2018-Jun-17 09:58N 34°37' E 135°01'510.6
2018-Jun-17 09:30N 34°36' E 135°07'611.7
2018-Jun-17 09:00N 34°36' E 135°14'611.4
2018-Jun-17 08:30N 34°34' E 135°21'4 1.0
2018-Jun-17 04:06N 34°31' E 135°25'0 3.2
2018-Jun-17 03:59N 34°32' E 135°24'3 6.0
2018-Jun-17 03:29N 34°32' E 135°21'0 0.0
2018-Jun-17 00:08N 34°32' E 135°21'1 8.8
2018-Jun-16 23:59N 34°32' E 135°22'2 0.1
2018-Jun-15 23:54N 34°31' E 135°24'3 6.9
2018-Jun-15 23:29N 34°33' E 135°22'2 2.6
2018-Jun-15 22:34N 34°32' E 135°19'0 0.0
2018-Jun-15 22:16N 34°32' E 135°19'0 0.0
2018-Jun-15 21:46N 34°32' E 135°19'0 0.0
2018-Jun-15 21:28N 34°32' E 135°19'0 0.0
2018-Jun-15 20:52N 34°32' E 135°19'0 0.0
2018-Jun-15 20:22N 34°32' E 135°19'0 0.0
2018-Jun-15 19:50N 34°32' E 135°19'3 9.2
2018-Jun-15 19:30N 34°33' E 135°16'713.1
2018-Jun-15 19:00N 34°35' E 135°08'815.1
2018-Jun-15 18:29N 34°37' E 134°59'714.7
2018-Jun-15 18:00N 34°34' E 134°51'713.1
2018-Jun-15 17:31N 34°31' E 134°44'612.6
2018-Jun-15 17:00N 34°29' E 134°36'612.7
2018-Jun-15 16:30N 34°27' E 134°29'812.6
2018-Jun-15 15:50N 34°24' E 134°20'3 0.1
2018-Jun-14 15:05N 34°25' E 134°22'212.0
2018-Jun-14 14:54N 34°26' E 134°25'512.1
2018-Jun-14 14:30N 34°28' E 134°30'612.3
2018-Jun-14 14:00N 34°30' E 134°37'612.9
2018-Jun-14 13:30N 34°33' E 134°44'1114.6
2018-Jun-14 12:43N 34°37' E 134°57'314.6
2018-Jun-14 12:29N 34°37' E 135°01'612.3
2018-Jun-14 12:00N 34°36' E 135°08'612.1
2018-Jun-14 11:30N 34°36' E 135°16'611.5
2018-Jun-14 11:00N 34°34' E 135°22'3 0.5
2018-Jun-14 04:38N 34°33' E 135°26'0 1.3
2018-Jun-14 04:23N 34°33' E 135°25'2 6.2
2018-Jun-14 04:00N 34°33' E 135°23'3 1.1
2018-Jun-14 01:34N 34°32' E 135°20'1 6.3
2018-Jun-14 01:28N 34°32' E 135°19'612.5
2018-Jun-14 01:01N 34°28' E 135°13'612.6
2018-Jun-14 00:31N 34°24' E 135°08'612.6
2018-Jun-14 00:00N 34°20' E 135°02'611.4
2018-Jun-13 23:30N 34°15' E 134°59'612.8
2018-Jun-13 23:01N 34°08' E 135°00'612.8
2018-Jun-13 22:31N 34°02' E 135°02'612.7
2018-Jun-13 22:00N 33°56' E 135°02'611.7
2018-Jun-13 21:27N 33°49' E 135°04'  
2018-Jun-09 08:19N 33°54' E 135°01'411.2
2018-Jun-09 08:00N 33°57' E 135°00'611.3
2018-Jun-09 07:30N 34°03' E 134°60'611.4
2018-Jun-09 07:00N 34°09' E 134°59'612.1
2018-Jun-09 06:30N 34°15' E 134°59'511.0
2018-Jun-09 06:00N 34°20' E 134°59'611.3
2018-Jun-09 05:31N 34°24' E 135°04'612.1
2018-Jun-09 05:00N 34°27' E 135°10'612.0
2018-Jun-09 04:30N 34°30' E 135°17'611.8
2018-Jun-09 04:00N 34°33' E 135°23'  

Dump ship's entire track history